Decoded Metar for KMML (MARSHALL/RYAN in MN, USA) (IATA:MML) | Meteo·Mobile Aviation Weather
aviador You're here:

KMML Decoded Metar

MARSHALL/RYAN in MN, USA
Report Time2019-03-22 09:56:00
UTC Time2019-03-22 10:05:25
Flight Rules vfr VFR
Wind310° at 08 kt
W.Decomp.*RWY 30: 8.0 kt HW 0.7 kt RCW
RWY 02: 2.1 kt HW 7.7 kt LCW
W.Rank310° ranks 4
Current wind is below 310° avg. (11.2)
Visibility9999 m
Phenomena:N/A
Clouds:N/A
Expected CloudBase > 400 ft AGL from Temp-Dew spread
CeilingNone
Temp-2°C (ISA -15)
Dew Point-3°C (93% RH)
AAT-7.3°C
QNH1023 hPa
Density Alt-886 ft
Elevation1,178 ft
Report Wrong Elevation
Raw Report
KMML 220956Z AUTO 31008KT 10SM CLR M02/M03 A3021 RMK AO2 SLP246
T10221033 FZRANO=

Extra information for KMML:More info

Metar Taf Metar & Taf Last 4 Metars F.Rules Stats Wind Profile Meteogram Temp Stats Airport Information Weather charts Add Link Nearby VenuesMetar ALERT Operation Metar Decoded Social comments

AIRNAV info for KMML